createdAt,value
2023-10-13T00:01:56.996Z,22.60
2023-10-13T00:04:23.942Z,22.61
2023-10-13T00:06:50.520Z,22.61
2023-10-13T00:09:17.000Z,22.59
2023-10-13T00:11:47.349Z,22.59
2023-10-13T00:14:17.445Z,22.59
2023-10-13T00:17:01.915Z,22.58
2023-10-13T00:19:29.360Z,22.58
2023-10-13T00:21:57.617Z,22.58
2023-10-13T00:24:30.706Z,22.58
2023-10-13T00:26:58.718Z,22.59
2023-10-13T00:29:31.817Z,22.61
2023-10-13T00:31:58.882Z,22.61
2023-10-13T00:34:33.823Z,22.63
2023-10-13T00:37:18.669Z,22.60
2023-10-13T00:39:48.087Z,22.58
2023-10-13T00:42:21.503Z,22.60
2023-10-13T00:44:51.077Z,22.61
2023-10-13T00:47:43.965Z,22.61
2023-10-13T00:50:15.938Z,22.61
2023-10-13T00:52:47.996Z,22.63
2023-10-13T00:55:15.012Z,22.63
2023-10-13T00:57:42.404Z,22.61
2023-10-13T01:00:25.572Z,22.60
2023-10-13T01:03:09.637Z,22.62
2023-10-13T01:05:38.488Z,22.63
2023-10-13T01:08:05.008Z,22.65
2023-10-13T01:10:33.935Z,22.66
2023-10-13T01:13:03.484Z,22.64
2023-10-13T01:15:34.826Z,22.67
2023-10-13T01:18:15.174Z,22.65
2023-10-13T01:20:46.732Z,22.65
2023-10-13T01:23:20.133Z,22.65
2023-10-13T01:25:47.302Z,22.67
2023-10-13T01:28:19.925Z,22.68
2023-10-13T01:30:51.684Z,22.66
2023-10-13T01:33:24.516Z,22.64
2023-10-13T01:35:51.925Z,22.66
2023-10-13T01:38:18.642Z,22.65
2023-10-13T01:40:45.320Z,22.65
2023-10-13T01:43:16.204Z,22.66
2023-10-13T01:45:51.197Z,22.68
2023-10-13T01:48:19.508Z,22.66
2023-10-13T01:50:55.742Z,22.66
2023-10-13T01:53:23.548Z,22.67
2023-10-13T01:55:51.563Z,22.67
2023-10-13T01:58:19.755Z,22.65
2023-10-13T02:00:48.933Z,22.66
2023-10-13T02:03:17.081Z,22.66
2023-10-13T02:05:49.775Z,22.66
2023-10-13T02:08:24.100Z,22.68
2023-10-13T02:10:53.319Z,22.66
2023-10-13T02:13:21.824Z,22.67
2023-10-13T02:15:49.451Z,22.69
2023-10-13T02:18:22.152Z,22.71
2023-10-13T02:20:55.337Z,22.71
2023-10-13T02:23:22.544Z,22.72
2023-10-13T02:25:49.062Z,22.73
2023-10-13T02:28:15.789Z,22.74
2023-10-13T02:30:46.472Z,22.73
2023-10-13T02:33:13.419Z,22.72
2023-10-13T02:35:43.764Z,22.70
2023-10-13T02:38:13.554Z,22.70
2023-10-13T02:40:40.170Z,22.70
2023-10-13T02:43:06.637Z,22.70
2023-10-13T02:45:34.014Z,22.70
2023-10-13T02:48:14.888Z,22.69
2023-10-13T02:50:45.401Z,22.69
2023-10-13T02:53:14.851Z,22.67
2023-10-13T02:55:54.130Z,22.67
2023-10-13T02:58:22.059Z,22.64
2023-10-13T03:00:48.911Z,22.65
2023-10-13T03:03:20.065Z,22.62
2023-10-13T03:05:46.849Z,22.60
2023-10-13T03:08:18.935Z,22.62
2023-10-13T03:10:49.778Z,22.62
2023-10-13T03:13:16.333Z,22.62
2023-10-13T03:15:42.878Z,22.65
2023-10-13T03:18:16.639Z,22.66
2023-10-13T03:20:44.952Z,22.68
2023-10-13T03:23:11.412Z,22.68
2023-10-13T03:25:44.119Z,22.67
2023-10-13T03:28:15.342Z,22.68
2023-10-13T03:30:45.096Z,22.67
2023-10-13T03:33:13.360Z,22.68
2023-10-13T03:35:43.488Z,22.69
2023-10-13T03:38:20.529Z,22.70
2023-10-13T03:40:50.781Z,22.70
2023-10-13T03:43:23.289Z,22.69
2023-10-13T03:45:53.418Z,22.70
2023-10-13T03:48:26.591Z,22.70
2023-10-13T03:51:16.878Z,22.68
2023-10-13T03:53:56.009Z,22.66
2023-10-13T03:56:33.010Z,22.66
2023-10-13T03:59:07.674Z,22.67
2023-10-13T04:01:52.697Z,22.69
2023-10-13T04:04:40.247Z,22.70
2023-10-13T04:07:06.676Z,22.69
2023-10-13T04:09:33.161Z,22.69
2023-10-13T04:12:03.631Z,22.69
2023-10-13T04:14:48.856Z,22.71
2023-10-13T04:17:15.845Z,22.70
2023-10-13T04:20:04.240Z,22.68
2023-10-13T04:22:50.640Z,22.67
2023-10-13T04:25:37.177Z,22.66
2023-10-13T04:28:13.643Z,22.66
2023-10-13T04:30:58.742Z,22.69
2023-10-13T04:33:35.520Z,22.66
2023-10-13T04:36:15.308Z,22.65
2023-10-13T04:39:01.079Z,22.68
2023-10-13T04:41:46.083Z,22.69
2023-10-13T04:44:25.443Z,22.69
2023-10-13T04:46:52.142Z,22.67
2023-10-13T04:49:35.365Z,22.67
2023-10-13T04:52:12.422Z,22.67
2023-10-13T04:54:46.556Z,22.71
2023-10-13T04:57:32.144Z,22.71
2023-10-13T05:00:04.903Z,22.71
2023-10-13T05:02:37.894Z,22.72
2023-10-13T05:05:07.646Z,22.72
2023-10-13T05:07:52.871Z,22.76
2023-10-13T05:10:49.005Z,22.74
2023-10-13T05:13:34.155Z,22.76
2023-10-13T05:16:19.602Z,22.74
2023-10-13T05:19:04.870Z,22.74
2023-10-13T05:21:49.747Z,22.75
2023-10-13T05:24:34.656Z,22.74
2023-10-13T05:27:19.597Z,22.74
2023-10-13T05:30:05.864Z,22.74
2023-10-13T05:32:51.091Z,22.74
2023-10-13T05:35:36.259Z,22.75
2023-10-13T05:38:21.158Z,22.74
2023-10-13T05:41:26.487Z,22.75
2023-10-13T05:44:11.774Z,22.77
2023-10-13T05:46:38.708Z,22.75
2023-10-13T05:49:17.698Z,22.77
2023-10-13T05:51:48.900Z,22.77
2023-10-13T05:54:15.720Z,22.80
2023-10-13T05:57:07.544Z,22.81
2023-10-13T05:59:53.234Z,22.81
2023-10-13T06:02:39.975Z,22.79
2023-10-13T06:05:32.028Z,22.80
2023-10-13T06:08:17.606Z,22.80
2023-10-13T06:11:03.010Z,22.81
2023-10-13T06:13:48.327Z,22.81
2023-10-13T06:16:34.526Z,22.82
2023-10-13T06:19:19.707Z,22.81
2023-10-13T06:22:05.525Z,22.80
2023-10-13T06:24:50.481Z,22.82
2023-10-13T06:27:35.811Z,22.80
2023-10-13T06:30:02.867Z,22.80
2023-10-13T06:32:29.676Z,22.82
2023-10-13T06:35:06.105Z,22.83
2023-10-13T06:37:34.189Z,22.85
2023-10-13T06:40:07.621Z,22.85
2023-10-13T06:42:41.124Z,22.87
2023-10-13T06:45:09.618Z,22.89
2023-10-13T06:47:43.821Z,22.89
2023-10-13T06:50:26.045Z,22.89
2023-10-13T06:52:56.519Z,22.90
2023-10-13T06:55:29.591Z,22.90
2023-10-13T06:58:01.120Z,22.88
2023-10-13T07:00:31.291Z,22.90
2023-10-13T07:03:08.277Z,22.88
2023-10-13T07:05:36.084Z,22.88
2023-10-13T07:08:05.745Z,22.86
2023-10-13T07:10:40.595Z,22.88
2023-10-13T07:13:09.347Z,22.88
2023-10-13T07:15:41.068Z,22.85
2023-10-13T07:18:07.514Z,22.86
2023-10-13T07:20:35.610Z,22.89
2023-10-13T07:23:05.152Z,22.91
2023-10-13T07:25:34.219Z,22.91
2023-10-13T07:28:09.853Z,22.94
2023-10-13T07:30:54.897Z,22.94
2023-10-13T07:33:21.585Z,22.96
2023-10-13T07:35:53.032Z,22.97
2023-10-13T07:38:22.563Z,22.98
2023-10-13T07:40:54.835Z,22.99
2023-10-13T07:43:22.911Z,23.01
2023-10-13T07:45:53.442Z,23.04
2023-10-13T07:48:21.489Z,23.03
2023-10-13T07:50:50.025Z,23.03
2023-10-13T07:53:25.737Z,23.04
2023-10-13T07:55:57.374Z,23.05
2023-10-13T07:58:27.458Z,23.04
2023-10-13T08:00:59.630Z,23.06
2023-10-13T08:03:52.463Z,23.07
2023-10-13T08:06:21.440Z,23.08
2023-10-13T08:08:51.598Z,23.08
2023-10-13T08:11:21.189Z,23.08
2023-10-13T08:14:02.486Z,23.11
2023-10-13T08:16:51.708Z,23.11
2023-10-13T08:19:19.281Z,23.14
2023-10-13T08:22:21.690Z,23.15
2023-10-13T08:24:52.328Z,23.15
2023-10-13T08:27:34.538Z,23.16
2023-10-13T08:30:03.832Z,23.15
2023-10-13T08:32:30.634Z,23.16
2023-10-13T08:35:10.277Z,23.16
2023-10-13T08:37:56.901Z,23.14
2023-10-13T08:40:42.640Z,23.15
2023-10-13T08:43:12.780Z,23.14
2023-10-13T08:45:45.528Z,23.14
2023-10-13T08:48:19.753Z,23.15
2023-10-13T08:50:53.217Z,23.14
2023-10-13T08:53:45.574Z,23.14
2023-10-13T08:56:15.680Z,23.12
2023-10-13T08:58:55.252Z,23.12
2023-10-13T09:01:44.741Z,23.14
2023-10-13T09:04:30.946Z,23.12
2023-10-13T09:07:07.206Z,23.09
2023-10-13T09:09:52.307Z,23.08
2023-10-13T09:12:35.058Z,23.08
2023-10-13T09:15:25.025Z,23.07
2023-10-13T09:17:51.813Z,23.07
2023-10-13T09:20:44.126Z,23.10
2023-10-13T09:23:13.366Z,23.08
2023-10-13T09:25:55.090Z,23.08
2023-10-13T09:28:26.619Z,23.08
2023-10-13T09:30:54.122Z,23.08
2023-10-13T09:33:34.380Z,23.11
2023-10-13T09:36:01.378Z,23.11
2023-10-13T09:38:32.398Z,23.10
2023-10-13T09:40:59.365Z,23.13
2023-10-13T09:43:27.858Z,23.14
2023-10-13T09:46:08.888Z,23.14
2023-10-13T09:48:37.516Z,23.14
2023-10-13T09:51:08.024Z,23.13
2023-10-13T09:53:35.231Z,23.12
2023-10-13T09:56:20.477Z,23.10
2023-10-13T09:58:56.194Z,23.10
2023-10-13T10:01:35.107Z,23.10
2023-10-13T10:04:17.068Z,23.08
2023-10-13T10:07:00.652Z,23.09
2023-10-13T10:09:36.010Z,23.10
2023-10-13T10:12:11.054Z,23.10
2023-10-13T10:14:38.387Z,23.11
2023-10-13T10:17:11.151Z,23.13
2023-10-13T10:19:47.483Z,23.13
2023-10-13T10:22:21.845Z,23.13
2023-10-13T10:24:58.159Z,23.11
2023-10-13T10:27:31.755Z,23.10
2023-10-13T10:29:58.886Z,23.08
2023-10-13T10:32:34.742Z,23.09
2023-10-13T10:35:08.820Z,23.09
2023-10-13T10:37:35.758Z,23.10
2023-10-13T10:40:06.932Z,23.10
2023-10-13T10:42:33.704Z,23.09
2023-10-13T10:45:06.497Z,23.08
2023-10-13T10:47:34.086Z,23.07
2023-10-13T10:50:08.033Z,23.05
2023-10-13T10:52:38.450Z,23.05
2023-10-13T10:55:08.766Z,23.06
2023-10-13T10:57:38.486Z,23.07
2023-10-13T11:00:16.059Z,23.06
2023-10-13T11:02:42.491Z,23.06
2023-10-13T11:05:11.767Z,23.04
2023-10-13T11:07:38.300Z,23.03
2023-10-13T11:10:14.651Z,23.00
2023-10-13T11:12:44.539Z,23.00
2023-10-13T11:15:23.699Z,23.02
2023-10-13T11:17:55.751Z,23.03
2023-10-13T11:20:44.946Z,23.03
2023-10-13T11:23:12.733Z,23.03
2023-10-13T11:25:39.675Z,23.02
2023-10-13T11:28:18.838Z,23.01
2023-10-13T11:30:51.367Z,23.01
2023-10-13T11:33:29.617Z,23.01
2023-10-13T11:35:57.160Z,23.01
2023-10-13T11:38:27.910Z,23.00
2023-10-13T11:41:08.782Z,23.03
2023-10-13T11:43:53.659Z,23.01
2023-10-13T11:46:37.064Z,23.01
2023-10-13T11:49:18.228Z,23.03
2023-10-13T11:51:47.736Z,23.03
2023-10-13T11:54:21.150Z,22.99
2023-10-13T11:56:48.042Z,23.00
2023-10-13T11:59:18.971Z,23.02
2023-10-13T12:02:05.004Z,23.02
2023-10-13T12:04:50.232Z,23.03
2023-10-13T12:07:46.292Z,23.05
2023-10-13T12:10:34.568Z,23.03
2023-10-13T12:13:06.779Z,23.07
2023-10-13T12:15:49.990Z,23.07
2023-10-13T12:18:17.022Z,23.08
2023-10-13T12:20:46.807Z,23.07
2023-10-13T12:23:18.255Z,23.05
2023-10-13T12:26:00.744Z,23.03
2023-10-13T12:28:32.325Z,23.02
2023-10-13T12:31:05.352Z,23.06
2023-10-13T12:33:44.964Z,23.07
2023-10-13T12:36:16.444Z,23.07
2023-10-13T12:38:49.455Z,23.06
2023-10-13T12:41:36.262Z,23.08
2023-10-13T12:44:22.929Z,23.08
2023-10-13T12:47:08.524Z,23.03
2023-10-13T12:49:44.719Z,23.03
2023-10-13T12:52:20.128Z,23.04
2023-10-13T12:55:07.222Z,23.05
2023-10-13T12:57:34.655Z,23.05
2023-10-13T13:00:02.087Z,23.06
2023-10-13T13:02:28.888Z,23.08
2023-10-13T13:05:02.792Z,23.10
2023-10-13T13:07:30.683Z,23.11
2023-10-13T13:09:59.828Z,23.08
2023-10-13T13:12:26.332Z,23.10
2023-10-13T13:14:56.129Z,23.11
2023-10-13T13:17:22.989Z,23.11
2023-10-13T13:19:49.819Z,23.11
2023-10-13T13:22:17.265Z,23.13
2023-10-13T13:24:44.691Z,23.14
2023-10-13T13:27:14.827Z,23.14
2023-10-13T13:29:44.696Z,23.16
2023-10-13T13:32:25.333Z,23.14
2023-10-13T13:35:08.889Z,23.17
2023-10-13T13:37:35.989Z,23.16
2023-10-13T13:40:17.428Z,23.17
2023-10-13T13:42:44.505Z,23.16
2023-10-13T13:45:22.542Z,23.16
2023-10-13T13:47:55.127Z,23.19
2023-10-13T13:50:25.924Z,23.19
2023-10-13T13:52:53.839Z,23.20
2023-10-13T13:55:21.053Z,23.20
2023-10-13T13:57:47.958Z,23.21
2023-10-13T14:00:18.327Z,23.21
2023-10-13T14:02:49.091Z,23.21
2023-10-13T14:05:19.111Z,23.23
2023-10-13T14:07:51.674Z,23.24
2023-10-13T14:10:32.513Z,23.24
2023-10-13T14:13:07.406Z,23.24
2023-10-13T14:15:45.191Z,23.24
2023-10-13T14:18:20.621Z,23.23
2023-10-13T14:20:47.100Z,23.23
2023-10-13T14:23:13.524Z,23.24
2023-10-13T14:25:40.471Z,23.25
2023-10-13T14:28:07.649Z,23.24
2023-10-13T14:30:34.423Z,23.25
2023-10-13T14:33:00.850Z,23.24
2023-10-13T14:35:27.364Z,23.23
2023-10-13T14:37:54.189Z,23.25
2023-10-13T14:40:22.828Z,23.24
2023-10-13T14:42:49.724Z,23.25
2023-10-13T14:45:19.043Z,23.24
2023-10-13T14:47:45.586Z,23.24
2023-10-13T14:50:20.806Z,23.25
2023-10-13T14:52:50.423Z,23.23
2023-10-13T14:55:19.951Z,23.24
2023-10-13T14:57:51.609Z,23.24
2023-10-13T15:00:26.234Z,23.24
2023-10-13T15:02:54.347Z,23.24
2023-10-13T15:05:21.092Z,23.24
2023-10-13T15:07:47.702Z,23.25
2023-10-13T15:10:17.786Z,23.25
2023-10-13T15:12:47.782Z,23.25
2023-10-13T15:15:17.383Z,23.25
2023-10-13T15:17:44.416Z,23.25
2023-10-13T15:20:16.852Z,23.24
2023-10-13T15:22:44.381Z,23.24
2023-10-13T15:25:21.886Z,23.25
2023-10-13T15:27:56.584Z,23.25
2023-10-13T15:30:31.989Z,23.24
2023-10-13T15:32:58.631Z,23.23
2023-10-13T15:35:29.526Z,23.23
2023-10-13T15:37:56.714Z,23.23
2023-10-13T15:40:25.033Z,23.23
2023-10-13T15:42:51.500Z,23.22
2023-10-13T15:45:18.041Z,23.22
2023-10-13T15:48:16.901Z,23.21
2023-10-13T15:50:42.905Z,23.22
2023-10-13T15:53:13.819Z,23.20
2023-10-13T15:55:40.622Z,23.20
2023-10-13T15:58:10.208Z,23.20
2023-10-13T16:00:37.279Z,23.19
2023-10-13T16:03:11.433Z,23.18
2023-10-13T16:05:39.268Z,23.18
2023-10-13T16:08:07.936Z,23.18
2023-10-13T16:10:34.698Z,23.19
2023-10-13T16:13:01.201Z,23.19
2023-10-13T16:15:27.786Z,23.19
2023-10-13T16:17:54.903Z,23.16
2023-10-13T16:20:22.108Z,23.18
2023-10-13T16:22:49.092Z,23.18
2023-10-13T16:25:19.680Z,23.16
2023-10-13T16:27:47.509Z,23.16
2023-10-13T16:30:17.151Z,23.17
2023-10-13T16:32:46.904Z,23.16
2023-10-13T16:35:17.519Z,23.16
2023-10-13T16:37:48.137Z,23.17
2023-10-13T16:40:19.364Z,23.15
2023-10-13T16:42:46.646Z,23.15
2023-10-13T16:45:15.865Z,23.16
2023-10-13T16:47:43.834Z,23.16
2023-10-13T16:50:10.981Z,23.16
2023-10-13T16:52:37.654Z,23.15
2023-10-13T16:55:05.907Z,23.15
2023-10-13T16:57:32.390Z,23.15
2023-10-13T16:59:58.866Z,23.14
2023-10-13T17:02:25.379Z,23.13
2023-10-13T17:04:51.906Z,23.12
2023-10-13T17:07:19.912Z,23.10
2023-10-13T17:09:46.611Z,23.11
2023-10-13T17:12:13.206Z,23.08
2023-10-13T17:14:41.557Z,23.11
2023-10-13T17:17:09.484Z,23.12
2023-10-13T17:19:35.993Z,23.11
2023-10-13T17:22:05.038Z,23.10
2023-10-13T17:24:34.470Z,23.10
2023-10-13T17:27:02.473Z,23.11
2023-10-13T17:29:29.931Z,23.11
2023-10-13T17:31:56.515Z,23.10
2023-10-13T17:34:23.298Z,23.08
2023-10-13T17:36:50.136Z,23.06
2023-10-13T17:39:19.035Z,23.08
2023-10-13T17:41:49.494Z,23.08
2023-10-13T17:44:15.926Z,23.07
2023-10-13T17:46:42.942Z,23.07
2023-10-13T17:49:09.442Z,23.07
2023-10-13T17:51:36.138Z,23.08
2023-10-13T17:54:02.565Z,23.07
2023-10-13T17:56:28.992Z,23.07
2023-10-13T17:58:55.658Z,23.08
2023-10-13T18:01:22.716Z,23.07
2023-10-13T18:03:53.089Z,23.06
2023-10-13T18:06:21.352Z,23.05
2023-10-13T18:08:50.419Z,23.04
2023-10-13T18:11:17.100Z,23.06
2023-10-13T18:13:44.366Z,23.04
2023-10-13T18:16:17.518Z,23.05
2023-10-13T18:18:44.810Z,23.06
2023-10-13T18:21:13.190Z,23.05
2023-10-13T18:23:44.541Z,23.04
2023-10-13T18:26:16.590Z,23.04
2023-10-13T18:28:43.656Z,23.04
2023-10-13T18:31:13.222Z,23.04
2023-10-13T18:33:40.740Z,23.03
2023-10-13T18:36:14.498Z,23.04
2023-10-13T18:38:41.026Z,23.04
2023-10-13T18:41:08.752Z,23.02
2023-10-13T18:43:39.252Z,23.03
2023-10-13T18:46:12.836Z,23.04
2023-10-13T18:48:39.489Z,23.03
2023-10-13T18:51:07.442Z,23.04
2023-10-13T18:53:35.327Z,23.03
2023-10-13T18:56:05.471Z,23.03
2023-10-13T18:58:34.415Z,23.03
2023-10-13T19:01:09.121Z,23.04
2023-10-13T19:03:35.637Z,23.05
2023-10-13T19:06:02.032Z,23.04
2023-10-13T19:08:30.361Z,23.03
2023-10-13T19:10:56.803Z,23.04
2023-10-13T19:13:23.229Z,23.02
2023-10-13T19:15:49.739Z,23.02
2023-10-13T19:18:16.348Z,23.04
2023-10-13T19:20:42.867Z,23.04
2023-10-13T19:23:10.290Z,23.01
2023-10-13T19:25:37.137Z,23.00
2023-10-13T19:28:03.743Z,23.02
2023-10-13T19:30:32.674Z,23.02
2023-10-13T19:35:25.978Z,23.05
2023-10-13T19:37:52.399Z,23.05
2023-10-13T19:40:18.850Z,23.04
2023-10-13T19:42:45.358Z,23.05
2023-10-13T19:45:14.411Z,23.04
2023-10-13T19:47:42.014Z,23.05
2023-10-13T19:50:14.194Z,23.05
2023-10-13T19:52:43.416Z,23.05
2023-10-13T19:55:17.561Z,23.04
2023-10-13T19:57:45.277Z,23.04
2023-10-13T20:00:20.856Z,23.05
2023-10-13T20:02:50.320Z,23.04
2023-10-13T20:05:18.932Z,23.05
2023-10-13T20:07:45.357Z,23.06
2023-10-13T20:10:12.083Z,23.05
2023-10-13T20:12:41.987Z,23.06
2023-10-13T20:15:08.717Z,23.06
2023-10-13T20:17:36.166Z,23.03
2023-10-13T20:20:04.676Z,23.03
2023-10-13T20:22:31.386Z,23.04
2023-10-13T20:24:58.131Z,23.04
2023-10-13T20:27:24.699Z,23.04
2023-10-13T20:29:52.281Z,23.04
2023-10-13T20:32:18.735Z,23.03
2023-10-13T20:34:45.108Z,23.04
2023-10-13T20:37:14.242Z,23.04
2023-10-13T20:39:42.122Z,23.05
2023-10-13T20:42:10.200Z,23.04
2023-10-13T20:44:41.326Z,23.05
2023-10-13T20:47:08.149Z,23.05
2023-10-13T20:49:34.849Z,23.05
2023-10-13T20:52:05.622Z,23.06
2023-10-13T20:54:35.542Z,23.05
2023-10-13T20:57:02.115Z,23.04
2023-10-13T20:59:28.654Z,23.04
2023-10-13T21:01:56.548Z,23.03
2023-10-13T21:04:24.832Z,23.03
2023-10-13T21:06:51.650Z,23.04
2023-10-13T21:09:21.675Z,23.03
2023-10-13T21:11:51.275Z,23.03
2023-10-13T21:14:17.817Z,23.02
2023-10-13T21:16:44.363Z,23.02
2023-10-13T21:19:11.053Z,23.02
2023-10-13T21:21:38.919Z,23.01
2023-10-13T21:24:11.026Z,23.01
2023-10-13T21:26:37.884Z,23.00
2023-10-13T21:29:09.027Z,23.00
2023-10-13T21:31:38.669Z,22.99
2023-10-13T21:34:08.594Z,22.98
2023-10-13T21:36:38.549Z,22.96
2023-10-13T21:39:05.558Z,22.96
2023-10-13T21:41:37.970Z,22.94
2023-10-13T21:44:04.594Z,22.95
2023-10-13T21:46:31.201Z,22.97
2023-10-13T21:49:05.787Z,22.98
2023-10-13T21:51:33.377Z,22.96
2023-10-13T21:54:00.246Z,22.97
2023-10-13T21:56:26.755Z,22.96
2023-10-13T21:58:53.178Z,22.96
2023-10-13T22:01:22.585Z,22.96
2023-10-13T22:03:49.697Z,22.95
2023-10-13T22:06:16.760Z,22.96
2023-10-13T22:08:43.310Z,22.96
2023-10-13T22:11:09.964Z,22.97
2023-10-13T22:13:42.057Z,22.97
2023-10-13T22:16:12.403Z,22.95
2023-10-13T22:18:39.088Z,22.94
2023-10-13T22:21:05.612Z,22.96
2023-10-13T22:23:32.018Z,22.96
2023-10-13T22:25:58.452Z,22.97
2023-10-13T22:28:25.152Z,22.97
2023-10-13T22:30:51.893Z,22.96
2023-10-13T22:33:18.421Z,22.96
2023-10-13T22:35:44.875Z,22.96
2023-10-13T22:38:12.589Z,22.97
2023-10-13T22:40:42.004Z,22.96
2023-10-13T22:43:08.553Z,22.98
2023-10-13T22:45:35.081Z,23.00
2023-10-13T22:48:01.611Z,22.98
2023-10-13T22:50:27.996Z,22.98
2023-10-13T22:52:59.578Z,23.00
2023-10-13T22:55:26.504Z,23.01
2023-10-13T22:57:57.596Z,22.99
2023-10-13T23:00:47.640Z,22.98
2023-10-13T23:03:18.653Z,22.99
2023-10-13T23:06:04.664Z,23.00
2023-10-13T23:08:41.821Z,23.00
2023-10-13T23:11:15.853Z,23.00
2023-10-13T23:13:44.007Z,23.00
2023-10-13T23:16:13.989Z,23.00
2023-10-13T23:18:41.461Z,23.01
2023-10-13T23:21:08.000Z,23.02
2023-10-13T23:23:34.475Z,23.03
2023-10-13T23:26:04.381Z,23.05
2023-10-13T23:28:37.057Z,23.06
2023-10-13T23:31:03.882Z,23.07
2023-10-13T23:33:30.450Z,23.05
2023-10-13T23:35:56.926Z,23.06
2023-10-13T23:38:26.237Z,23.05
2023-10-13T23:40:53.615Z,23.05
2023-10-13T23:43:22.823Z,23.03
2023-10-13T23:46:06.200Z,23.02
2023-10-13T23:48:35.608Z,23.00
2023-10-13T23:51:02.392Z,22.99
2023-10-13T23:53:32.353Z,23.02
2023-10-13T23:56:13.495Z,23.03
2023-10-13T23:58:42.241Z,23.02
